createdAt,value
2018-06-04T00:02:16.251Z,22.97
2018-06-04T00:04:44.402Z,22.93
2018-06-04T00:07:17.384Z,23.05
2018-06-04T00:09:45.498Z,23.05
2018-06-04T00:12:13.874Z,22.77
2018-06-04T00:14:41.970Z,22.89
2018-06-04T00:17:10.211Z,22.86
2018-06-04T00:19:38.438Z,22.84
2018-06-04T00:22:06.599Z,23.08
2018-06-04T00:24:35.715Z,22.51
2018-06-04T00:27:04.232Z,22.68
2018-06-04T00:29:32.495Z,22.58
2018-06-04T00:32:00.665Z,22.50
2018-06-04T00:34:28.795Z,22.46
2018-06-04T00:36:56.918Z,22.63
2018-06-04T00:39:25.059Z,22.69
2018-06-04T00:41:53.191Z,22.65
2018-06-04T00:44:21.345Z,22.10
2018-06-04T00:46:49.743Z,22.32
2018-06-04T00:49:17.863Z,22.31
2018-06-04T00:51:46.010Z,22.50
2018-06-04T00:54:14.199Z,22.45
2018-06-04T00:56:42.367Z,22.62
2018-06-04T00:59:10.471Z,22.66
2018-06-04T01:01:38.728Z,22.65
2018-06-04T01:04:06.866Z,22.46
2018-06-04T01:06:36.226Z,22.68
2018-06-04T01:09:06.238Z,22.82
2018-06-04T01:11:34.359Z,22.68
2018-06-04T01:14:02.483Z,22.48
2018-06-04T01:16:30.598Z,22.61
2018-06-04T01:18:58.693Z,22.50
2018-06-04T01:21:26.810Z,22.20
2018-06-04T01:23:54.939Z,22.14
2018-06-04T01:26:23.087Z,22.08
2018-06-04T01:28:51.210Z,22.15
2018-06-04T01:31:19.409Z,22.02
2018-06-04T01:33:47.619Z,21.99
2018-06-04T01:36:15.900Z,22.08
2018-06-04T01:38:44.164Z,21.91
2018-06-04T01:41:12.361Z,21.94
2018-06-04T01:43:40.651Z,21.93
2018-06-04T01:46:08.811Z,21.83
2018-06-04T01:48:37.097Z,21.91
2018-06-04T01:51:06.381Z,21.68
2018-06-04T01:53:34.587Z,21.85
2018-06-04T01:56:02.766Z,21.74
2018-06-04T01:58:30.856Z,21.66
2018-06-04T02:00:58.996Z,21.86
2018-06-04T02:03:27.169Z,21.73
2018-06-04T02:05:55.302Z,21.64
2018-06-04T02:08:23.555Z,21.54
2018-06-04T02:10:51.717Z,21.65
2018-06-04T02:13:19.957Z,21.57
2018-06-04T02:15:48.123Z,21.72
2018-06-04T02:18:16.253Z,21.64
2018-06-04T02:20:44.565Z,21.66
2018-06-04T02:23:12.774Z,21.62
2018-06-04T02:25:40.947Z,21.52
2018-06-04T02:28:09.105Z,21.54
2018-06-04T02:30:37.269Z,21.46
2018-06-04T02:33:06.494Z,21.53
2018-06-04T02:35:34.641Z,21.45
2018-06-04T02:38:02.770Z,21.38
2018-06-04T02:40:30.873Z,21.37
2018-06-04T02:42:58.989Z,21.22
2018-06-04T02:45:27.163Z,21.33
2018-06-04T02:47:55.281Z,21.24
2018-06-04T02:50:23.485Z,21.35
2018-06-04T02:52:51.615Z,21.04
2018-06-04T02:55:19.747Z,21.49
2018-06-04T02:57:47.874Z,21.29
2018-06-04T03:00:15.969Z,21.18
2018-06-04T03:02:44.884Z,21.15
2018-06-04T03:05:13.001Z,21.24
2018-06-04T03:07:41.103Z,21.17
2018-06-04T03:10:09.382Z,21.08
2018-06-04T03:12:37.571Z,20.99
2018-06-04T03:15:06.880Z,20.98
2018-06-04T03:17:35.810Z,21.16
2018-06-04T03:20:03.909Z,21.09
2018-06-04T03:22:32.194Z,21.07
2018-06-04T03:25:00.354Z,21.22
2018-06-04T03:27:28.558Z,21.29
2018-06-04T03:29:56.715Z,21.10
2018-06-04T03:32:24.983Z,21.25
2018-06-04T03:34:53.172Z,21.25
2018-06-04T03:37:21.415Z,21.15
2018-06-04T03:39:49.517Z,21.22
2018-06-04T03:42:17.640Z,21.12
2018-06-04T03:44:45.864Z,20.82
2018-06-04T03:47:15.190Z,20.93
2018-06-04T03:49:43.313Z,20.96
2018-06-04T03:52:11.570Z,20.67
2018-06-04T03:54:39.905Z,20.89
2018-06-04T03:57:07.986Z,20.90
2018-06-04T03:59:36.842Z,20.85
2018-06-04T04:02:05.159Z,20.83
2018-06-04T04:04:33.305Z,20.93
2018-06-04T04:07:01.444Z,21.15
2018-06-04T04:09:29.666Z,21.03
2018-06-04T04:11:57.907Z,20.96
2018-06-04T04:14:26.037Z,21.10
2018-06-04T04:16:54.402Z,21.09
2018-06-04T04:19:22.739Z,21.19
2018-06-04T04:21:50.836Z,21.14
2018-06-04T04:24:19.024Z,21.07
2018-06-04T04:26:47.141Z,21.22
2018-06-04T04:29:15.318Z,21.15
2018-06-04T04:31:43.415Z,21.30
2018-06-04T04:34:11.517Z,21.01
2018-06-04T04:36:39.571Z,21.17
2018-06-04T04:39:08.886Z,21.37
2018-06-04T04:41:37.048Z,21.26
2018-06-04T04:44:05.187Z,21.38
2018-06-04T04:46:33.406Z,21.10
2018-06-04T04:49:07.937Z,21.24
2018-06-04T04:51:37.075Z,21.22
2018-06-04T04:54:05.183Z,21.45
2018-06-04T04:56:33.393Z,21.90
2018-06-04T04:59:01.512Z,22.77
2018-06-04T05:01:29.609Z,21.78
2018-06-04T05:03:57.786Z,21.19
2018-06-04T05:06:25.872Z,21.46
2018-06-04T05:08:54.272Z,21.23
2018-06-04T05:11:22.403Z,21.48
2018-06-04T05:13:50.545Z,21.49
2018-06-04T05:16:18.663Z,21.50
2018-06-04T05:18:46.837Z,21.58
2018-06-04T05:21:14.934Z,21.57
2018-06-04T05:23:43.386Z,21.48
2018-06-04T05:26:11.661Z,21.62
2018-06-04T05:28:39.837Z,21.69
2018-06-04T05:31:08.726Z,21.67
2018-06-04T05:33:37.682Z,21.69
2018-06-04T05:36:05.874Z,21.57
2018-06-04T05:38:33.992Z,21.81
2018-06-04T05:41:02.147Z,21.83
2018-06-04T05:43:30.287Z,21.60
2018-06-04T05:45:58.432Z,21.86
2018-06-04T05:48:26.660Z,21.83
2018-06-04T05:50:54.771Z,22.36
2018-06-04T05:53:22.876Z,22.18
2018-06-04T05:55:53.975Z,21.97
2018-06-04T05:58:22.216Z,22.00
2018-06-04T06:00:50.424Z,21.98
2018-06-04T06:03:18.643Z,22.05
2018-06-04T06:05:46.935Z,21.97
2018-06-04T06:08:15.011Z,22.26
2018-06-04T06:10:43.168Z,22.24
2018-06-04T06:13:11.443Z,22.20
2018-06-04T06:15:39.611Z,22.12
2018-06-04T06:18:07.703Z,22.30
2018-06-04T06:20:35.799Z,22.13
2018-06-04T06:23:03.874Z,22.38
2018-06-04T06:25:31.942Z,22.20
2018-06-04T06:28:00.028Z,22.34
2018-06-04T06:30:29.133Z,22.45
2018-06-04T06:32:57.219Z,22.48
2018-06-04T06:35:25.362Z,22.67
2018-06-04T06:37:53.441Z,22.54
2018-06-04T06:40:21.563Z,22.65
2018-06-04T06:42:49.695Z,22.83
2018-06-04T06:45:17.799Z,22.97
2018-06-04T06:47:46.571Z,22.93
2018-06-04T06:50:14.771Z,23.15
2018-06-04T06:52:42.878Z,22.87
2018-06-04T06:55:12.079Z,23.06
2018-06-04T06:57:40.240Z,23.06
2018-06-04T07:00:08.371Z,23.03
2018-06-04T07:02:36.478Z,23.19
2018-06-04T07:05:04.569Z,23.34
2018-06-04T07:07:32.733Z,23.46
2018-06-04T07:10:00.837Z,23.39
2018-06-04T07:12:28.898Z,23.27
2018-06-04T07:14:56.995Z,23.43
2018-06-04T07:17:25.080Z,23.62
2018-06-04T07:19:53.337Z,23.71
2018-06-04T07:22:21.464Z,23.74
2018-06-04T07:24:49.645Z,23.73
2018-06-04T07:27:17.806Z,23.74
2018-06-04T07:29:46.127Z,23.80
2018-06-04T07:32:14.305Z,23.88
2018-06-04T07:34:42.478Z,23.86
2018-06-04T07:37:10.585Z,23.89
2018-06-04T07:39:38.647Z,23.89
2018-06-04T07:42:06.822Z,23.96
2018-06-04T07:44:34.941Z,23.92
2018-06-04T07:47:04.705Z,24.03
2018-06-04T07:49:33.247Z,24.26
2018-06-04T07:52:01.473Z,24.36
2018-06-04T07:54:29.531Z,24.33
2018-06-04T07:56:57.607Z,24.27
2018-06-04T07:59:25.696Z,24.30
2018-06-04T08:01:53.822Z,24.44
2018-06-04T08:04:22.012Z,24.44
2018-06-04T08:06:50.180Z,24.52
2018-06-04T08:09:18.349Z,24.65
2018-06-04T08:11:47.118Z,24.64
2018-06-04T08:14:15.196Z,24.73
2018-06-04T08:16:43.275Z,24.73
2018-06-04T08:19:11.486Z,24.69
2018-06-04T08:21:39.625Z,24.75
2018-06-04T08:24:08.170Z,24.79
2018-06-04T08:26:36.356Z,24.77
2018-06-04T08:29:04.620Z,24.88
2018-06-04T08:31:33.364Z,25.05
2018-06-04T08:34:01.454Z,25.07
2018-06-04T08:36:29.575Z,25.05
2018-06-04T08:38:57.707Z,25.13
2018-06-04T08:41:25.967Z,25.15
2018-06-04T08:43:54.099Z,25.20
2018-06-04T08:46:22.209Z,25.31
2018-06-04T08:48:50.360Z,25.41
2018-06-04T08:51:18.517Z,25.35
2018-06-04T08:53:46.621Z,25.43
2018-06-04T08:56:14.746Z,25.47
2018-06-04T08:58:43.074Z,25.50
2018-06-04T09:01:11.168Z,25.63
2018-06-04T09:03:39.317Z,25.64
2018-06-04T09:06:07.435Z,25.62
2018-06-04T09:08:35.839Z,25.76
2018-06-04T09:11:03.991Z,25.88
2018-06-04T09:13:32.163Z,25.93
2018-06-04T09:16:00.262Z,25.98
2018-06-04T09:18:28.375Z,26.08
2018-06-04T09:20:56.458Z,26.19
2018-06-04T09:23:24.636Z,26.19
2018-06-04T09:25:52.766Z,26.26
2018-06-04T09:28:20.826Z,26.23
2018-06-04T09:30:49.494Z,26.30
2018-06-04T09:33:17.624Z,26.41
2018-06-04T09:35:45.783Z,26.49
2018-06-04T09:38:13.911Z,26.54
2018-06-04T09:40:42.019Z,26.56
2018-06-04T09:43:14.798Z,26.71
2018-06-04T09:45:42.923Z,26.70
2018-06-04T09:48:11.051Z,26.78
2018-06-04T09:50:39.345Z,26.83
2018-06-04T09:53:07.462Z,26.86
2018-06-04T09:55:35.619Z,26.87
2018-06-04T09:58:03.749Z,26.87
2018-06-04T10:00:35.205Z,27.05
2018-06-04T10:03:04.322Z,27.14
2018-06-04T10:05:32.433Z,27.17
2018-06-04T10:08:00.591Z,27.28
2018-06-04T10:10:28.889Z,27.28
2018-06-04T10:12:57.193Z,27.31
2018-06-04T10:15:25.311Z,27.39
2018-06-04T10:17:53.467Z,27.43
2018-06-04T10:20:21.529Z,27.47
2018-06-04T10:22:49.896Z,27.46
2018-06-04T10:25:18.063Z,27.56
2018-06-04T10:27:46.224Z,27.66
2018-06-04T10:30:14.338Z,27.76
2018-06-04T10:32:42.511Z,27.86
2018-06-04T10:35:11.037Z,27.95
2018-06-04T10:37:40.548Z,27.99
2018-06-04T10:40:08.980Z,28.02
2018-06-04T10:42:37.166Z,28.01
2018-06-04T10:45:05.705Z,28.31
2018-06-04T10:47:33.839Z,28.32
2018-06-04T10:50:02.068Z,28.53
2018-06-04T10:52:30.315Z,28.67
2018-06-04T10:54:58.443Z,28.58
2018-06-04T10:57:26.557Z,28.54
2018-06-04T10:59:54.627Z,28.79
2018-06-04T11:02:22.740Z,29.06
2018-06-04T11:04:50.889Z,28.72
2018-06-04T11:07:18.946Z,29.20
2018-06-04T11:09:47.075Z,29.19
2018-06-04T11:12:15.218Z,29.39
2018-06-04T11:14:43.266Z,29.52
2018-06-04T11:17:11.375Z,29.94
2018-06-04T11:19:39.454Z,30.06
2018-06-04T11:22:07.697Z,30.14
2018-06-04T11:24:35.936Z,30.64
2018-06-04T11:27:04.057Z,29.97
2018-06-04T11:29:32.969Z,30.21
2018-06-04T11:32:01.091Z,30.90
2018-06-04T11:34:29.391Z,31.14
2018-06-04T11:36:57.556Z,31.33
2018-06-04T11:39:25.778Z,31.64
2018-06-04T11:41:53.969Z,32.32
2018-06-04T11:44:22.112Z,32.30
2018-06-04T11:46:50.624Z,32.39
2018-06-04T11:49:18.755Z,32.43
2018-06-04T11:51:46.954Z,33.47
2018-06-04T11:54:15.208Z,33.92
2018-06-04T11:56:43.575Z,34.66
2018-06-04T11:59:11.638Z,35.62
2018-06-04T12:01:39.998Z,34.33
2018-06-04T12:04:08.428Z,32.75
2018-06-04T12:06:36.847Z,31.78
2018-06-04T12:09:07.418Z,31.92
2018-06-04T12:11:35.857Z,33.17
2018-06-04T12:14:04.035Z,35.05
2018-06-04T12:16:32.370Z,36.20
2018-06-04T12:19:02.370Z,35.15
2018-06-04T12:21:30.538Z,33.18
2018-06-04T12:23:58.709Z,32.41
2018-06-04T12:26:27.018Z,31.78
2018-06-04T12:28:55.137Z,31.40
2018-06-04T12:31:23.291Z,31.21
2018-06-04T12:33:51.407Z,30.88
2018-06-04T12:36:19.479Z,30.87
2018-06-04T12:38:47.581Z,32.09
2018-06-04T12:41:15.686Z,35.16
2018-06-04T12:43:43.938Z,37.02
2018-06-04T12:46:12.198Z,37.80
2018-06-04T12:48:40.532Z,38.52
2018-06-04T12:51:09.793Z,37.91
2018-06-04T12:53:37.928Z,37.61
2018-06-04T12:56:06.133Z,38.61
2018-06-04T12:58:34.328Z,39.67
2018-06-04T13:01:02.736Z,39.53
2018-06-04T13:03:30.955Z,40.06
2018-06-04T13:05:59.448Z,38.60
2018-06-04T13:08:27.607Z,36.63
2018-06-04T13:10:56.047Z,35.27
2018-06-04T13:13:24.209Z,37.44
2018-06-04T13:15:52.370Z,38.69
2018-06-04T13:18:20.492Z,40.19
2018-06-04T13:20:48.747Z,40.66
2018-06-04T13:23:16.799Z,38.91
2018-06-04T13:25:45.030Z,39.62
2018-06-04T13:28:13.434Z,39.91
2018-06-04T13:30:41.526Z,39.16
2018-06-04T13:33:09.752Z,40.79
2018-06-04T13:35:37.943Z,42.51
2018-06-04T13:38:06.392Z,42.26
2018-06-04T13:40:34.542Z,43.78
2018-06-04T13:43:02.766Z,43.28
2018-06-04T13:45:30.945Z,42.01
2018-06-04T13:47:59.004Z,38.26
2018-06-04T13:50:27.638Z,37.76
2018-06-04T13:52:55.887Z,37.81
2018-06-04T13:55:24.071Z,39.19
2018-06-04T13:57:52.729Z,40.95
2018-06-04T14:00:20.832Z,40.90
2018-06-04T14:02:49.124Z,37.97
2018-06-04T14:05:17.792Z,36.25
2018-06-04T14:07:47.444Z,35.36
2018-06-04T14:10:15.622Z,36.47
2018-06-04T14:12:45.067Z,38.41
2018-06-04T14:15:13.396Z,39.39
2018-06-04T14:17:41.485Z,40.42
2018-06-04T14:20:10.103Z,40.78
2018-06-04T14:22:38.225Z,41.80
2018-06-04T14:25:06.286Z,42.46
2018-06-04T14:27:34.428Z,42.12
2018-06-04T14:30:02.438Z,40.80
2018-06-04T14:32:30.512Z,39.46
2018-06-04T14:34:58.591Z,39.85
2018-06-04T14:37:28.179Z,40.93
2018-06-04T14:39:56.282Z,41.47
2018-06-04T14:42:24.853Z,41.83
2018-06-04T14:44:52.990Z,40.82
2018-06-04T14:47:21.178Z,41.54
2018-06-04T14:49:49.386Z,42.17
2018-06-04T14:52:17.491Z,39.62
2018-06-04T14:54:45.668Z,38.72
2018-06-04T14:57:13.940Z,37.76
2018-06-04T14:59:43.041Z,39.66
2018-06-04T15:02:11.880Z,38.60
2018-06-04T15:04:40.797Z,40.06
2018-06-04T15:07:08.961Z,40.53
2018-06-04T15:09:37.242Z,40.32
2018-06-04T15:12:05.416Z,41.04
2018-06-04T15:14:33.512Z,41.86
2018-06-04T15:17:01.846Z,41.25
2018-06-04T15:19:30.335Z,41.56
2018-06-04T15:21:59.560Z,41.65
2018-06-04T15:24:29.571Z,41.58
2018-06-04T15:26:57.803Z,41.54
2018-06-04T15:29:26.092Z,40.47
2018-06-04T15:31:54.516Z,40.57
2018-06-04T15:34:24.701Z,41.17
2018-06-04T15:36:52.742Z,42.55
2018-06-04T15:39:20.968Z,42.20
2018-06-04T15:41:49.110Z,40.72
2018-06-04T15:44:17.496Z,41.08
2018-06-04T15:46:45.697Z,41.19
2018-06-04T15:49:13.874Z,41.76
2018-06-04T15:51:42.022Z,40.80
2018-06-04T15:54:11.299Z,40.76
2018-06-04T15:56:39.530Z,40.60
2018-06-04T15:59:07.694Z,39.86
2018-06-04T16:01:35.850Z,38.64
2018-06-04T16:04:04.892Z,37.66
2018-06-04T16:06:34.008Z,37.45
2018-06-04T16:09:02.176Z,36.93
2018-06-04T16:11:30.481Z,36.66
2018-06-04T16:13:58.576Z,36.13
2018-06-04T16:16:26.867Z,35.55
2018-06-04T16:18:55.027Z,34.90
2018-06-04T16:21:23.151Z,34.93
2018-06-04T16:23:51.304Z,34.32
2018-06-04T16:26:20.594Z,34.38
2018-06-04T16:28:48.682Z,34.10
2018-06-04T16:31:16.776Z,33.44
2018-06-04T16:33:44.929Z,33.86
2018-06-04T16:36:13.133Z,33.50
2018-06-04T16:38:41.167Z,33.48
2018-06-04T16:41:09.237Z,33.33
2018-06-04T16:43:37.306Z,32.92
2018-06-04T16:46:05.660Z,33.01
2018-06-04T16:48:33.782Z,32.88
2018-06-04T16:51:01.825Z,33.05
2018-06-04T16:53:29.942Z,32.97
2018-06-04T16:55:58.182Z,32.59
2018-06-04T16:58:26.400Z,32.54
2018-06-04T17:00:54.491Z,32.23
2018-06-04T17:03:22.580Z,31.91
2018-06-04T17:05:56.774Z,32.11
2018-06-04T17:08:34.299Z,31.97
2018-06-04T17:11:02.717Z,31.55
2018-06-04T17:13:30.829Z,31.73
2018-06-04T17:15:58.890Z,31.86
2018-06-04T17:18:26.970Z,31.53
2018-06-04T17:20:55.403Z,31.63
2018-06-04T17:23:23.669Z,31.60
2018-06-04T17:25:51.810Z,31.55
2018-06-04T17:28:20.061Z,31.47
2018-06-04T17:30:48.173Z,31.37
2018-06-04T17:33:16.389Z,31.37
2018-06-04T17:35:44.459Z,31.10
2018-06-04T17:38:12.544Z,31.27
2018-06-04T17:55:26.198Z,31.26
2018-06-04T17:57:54.294Z,30.69
2018-06-04T18:00:23.038Z,30.78
2018-06-04T18:02:51.189Z,30.87
2018-06-04T18:05:19.534Z,30.57
2018-06-04T18:07:47.659Z,30.68
2018-06-04T18:10:15.742Z,30.49
2018-06-04T18:12:45.259Z,30.54
2018-06-04T18:15:13.395Z,30.41
2018-06-04T18:17:41.502Z,30.50
2018-06-04T18:21:38.799Z,30.24
2018-06-04T18:24:06.909Z,30.25
2018-06-04T18:26:35.008Z,30.21
2018-06-04T18:29:03.150Z,30.29
2018-06-04T18:31:31.256Z,30.10
2018-06-04T18:33:59.363Z,30.23
2018-06-04T18:36:27.489Z,30.18
2018-06-04T18:38:55.647Z,30.07
2018-06-04T18:41:23.714Z,29.99
2018-06-04T18:43:51.797Z,30.06
2018-06-04T18:46:20.203Z,30.00
2018-06-04T18:48:48.267Z,30.00
2018-06-04T18:51:16.382Z,29.64
2018-06-04T18:53:44.475Z,29.42
2018-06-04T18:56:12.671Z,29.71
2018-06-04T18:58:41.385Z,29.67
2018-06-04T19:01:09.494Z,29.53
2018-06-04T19:03:37.907Z,29.34
2018-06-04T19:06:06.081Z,29.44
2018-06-04T19:08:34.257Z,29.59
2018-06-04T19:11:02.369Z,29.47
2018-06-04T19:13:30.515Z,29.32
2018-06-04T19:15:58.631Z,29.05
2018-06-04T19:18:26.731Z,29.02
2018-06-04T19:20:56.021Z,28.99
2018-06-04T19:23:24.130Z,29.00
2018-06-04T19:25:52.650Z,28.97
2018-06-04T19:28:20.858Z,28.98
2018-06-04T19:30:48.970Z,28.80
2018-06-04T19:33:17.073Z,28.68
2018-06-04T19:35:45.256Z,28.75
2018-06-04T19:38:19.245Z,28.79
2018-06-04T19:40:56.884Z,29.01
2018-06-04T19:43:25.378Z,28.66
2018-06-04T19:45:53.484Z,28.72
2018-06-04T19:48:21.607Z,28.64
2018-06-04T19:50:49.747Z,28.49
2018-06-04T19:53:19.119Z,28.43
2018-06-04T19:55:47.306Z,28.35
2018-06-04T19:58:15.469Z,28.46
2018-06-04T20:00:43.557Z,28.50
2018-06-04T20:03:11.699Z,28.57
2018-06-04T20:05:39.822Z,28.44
2018-06-04T20:08:08.176Z,28.51
2018-06-04T20:10:36.283Z,28.47
2018-06-04T20:13:04.467Z,28.40
2018-06-04T20:15:32.554Z,28.12
2018-06-04T20:18:00.626Z,28.20
2018-06-04T20:20:28.785Z,28.11
2018-06-04T20:22:57.941Z,28.12
2018-06-04T20:25:26.061Z,28.15
2018-06-04T20:27:54.233Z,27.89
2018-06-04T20:30:22.400Z,27.98
2018-06-04T20:32:50.878Z,28.10
2018-06-04T20:35:19.135Z,28.07
2018-06-04T20:37:47.194Z,27.87
2018-06-04T20:40:15.258Z,27.75
2018-06-04T20:42:43.774Z,27.89
2018-06-04T20:45:12.355Z,27.91
2018-06-04T20:47:40.493Z,27.51
2018-06-04T20:50:08.578Z,27.60
2018-06-04T20:52:36.722Z,27.70
2018-06-04T20:55:05.024Z,27.70
2018-06-04T20:57:33.189Z,27.61
2018-06-04T21:00:01.387Z,27.53
2018-06-04T21:02:29.468Z,27.44
2018-06-04T21:04:57.578Z,27.10
2018-06-04T21:07:25.682Z,27.39
2018-06-04T21:09:53.804Z,26.98
2018-06-04T21:12:22.226Z,27.34
2018-06-04T21:14:50.327Z,27.24
2018-06-04T21:17:18.408Z,26.70
2018-06-04T21:19:46.467Z,26.91
2018-06-04T21:22:14.544Z,26.89
2018-06-04T21:24:42.604Z,26.52
2018-06-04T21:27:10.705Z,26.86
2018-06-04T21:29:38.787Z,26.99
2018-06-04T21:32:06.917Z,26.79
2018-06-04T21:34:35.024Z,26.69
2018-06-04T21:37:03.104Z,26.53
2018-06-04T21:39:31.542Z,26.61
2018-06-04T21:41:59.758Z,26.77
2018-06-04T21:44:27.892Z,26.69
2018-06-04T21:46:56.030Z,26.41
2018-06-04T21:49:24.171Z,26.37
2018-06-04T21:51:52.306Z,26.30
2018-06-04T21:54:20.440Z,26.45
2018-06-04T21:56:48.514Z,26.37
2018-06-04T21:59:16.644Z,26.40
2018-06-04T22:01:44.718Z,26.28
2018-06-04T22:04:13.756Z,26.21
2018-06-04T22:06:42.267Z,26.37
2018-06-04T22:09:10.508Z,26.38
2018-06-04T22:11:38.583Z,26.25
2018-06-04T22:14:06.695Z,26.21
2018-06-04T22:16:34.819Z,26.14
2018-06-04T22:19:02.923Z,26.18
2018-06-04T22:21:30.999Z,25.90
2018-06-04T22:23:59.074Z,25.96
2018-06-04T22:26:27.243Z,25.96
2018-06-04T22:28:55.366Z,25.80
2018-06-04T22:31:23.498Z,25.91
2018-06-04T22:33:51.590Z,25.93
2018-06-04T22:36:19.796Z,26.02
2018-06-04T22:38:47.934Z,25.83
2018-06-04T22:41:16.036Z,25.65
2018-06-04T22:43:44.082Z,25.76
2018-06-04T22:46:12.368Z,25.66
2018-06-04T22:48:40.439Z,25.49
2018-06-04T22:51:08.650Z,25.30
2018-06-04T22:53:36.734Z,25.47
2018-06-04T22:56:04.955Z,25.43
2018-06-04T22:58:33.094Z,25.47
2018-06-04T23:01:01.206Z,25.32
2018-06-04T23:03:29.275Z,25.32
2018-06-04T23:05:57.395Z,25.39
2018-06-04T23:08:25.441Z,25.26
2018-06-04T23:10:53.617Z,25.37
2018-06-04T23:13:21.722Z,25.22
2018-06-04T23:15:50.092Z,25.26
2018-06-04T23:18:18.216Z,25.52
2018-06-04T23:20:46.343Z,25.22
2018-06-04T23:23:14.430Z,24.95
2018-06-04T23:25:42.623Z,24.97
2018-06-04T23:28:10.715Z,25.15
2018-06-04T23:30:38.819Z,25.03
2018-06-04T23:33:06.973Z,24.99
2018-06-04T23:35:35.126Z,24.99
2018-06-04T23:38:03.549Z,24.95
2018-06-04T23:40:32.023Z,24.92
2018-06-04T23:43:00.302Z,24.87
2018-06-04T23:45:28.418Z,24.75
2018-06-04T23:47:56.807Z,25.10
2018-06-04T23:50:25.077Z,24.62
2018-06-04T23:52:53.190Z,24.62
2018-06-04T23:55:21.398Z,24.73
2018-06-04T23:57:49.491Z,24.67
